createdAt,value
2022-09-28T00:00:46.338Z,96585.06
2022-09-28T00:03:13.697Z,96581.25
2022-09-28T00:05:40.509Z,96577.97
2022-09-28T00:08:07.204Z,96582.34
2022-09-28T00:10:33.849Z,96579.28
2022-09-28T00:13:01.369Z,96571.50
2022-09-28T00:15:28.002Z,96573.91
2022-09-28T00:17:54.764Z,96569.88
2022-09-28T00:20:22.636Z,96571.22
2022-09-28T00:22:49.389Z,96582.59
2022-09-28T00:25:16.889Z,96578.47
2022-09-28T00:27:43.737Z,96565.84
2022-09-28T00:30:10.543Z,96565.34
2022-09-28T00:32:37.267Z,96570.66
2022-09-28T00:35:04.631Z,96564.94
2022-09-28T00:37:31.570Z,96560.31
2022-09-28T00:39:58.294Z,96563.38
2022-09-28T00:42:26.655Z,96557.16
2022-09-28T00:44:53.936Z,96550.91
2022-09-28T00:47:23.764Z,96544.41
2022-09-28T00:50:08.808Z,96545.72
2022-09-28T00:52:53.233Z,96551.13
2022-09-28T00:55:26.634Z,96555.00
2022-09-28T00:57:58.137Z,96555.50
2022-09-28T01:00:25.356Z,96559.63
2022-09-28T01:02:52.629Z,96552.63
2022-09-28T01:05:20.785Z,96548.66
2022-09-28T01:07:48.511Z,96536.91
2022-09-28T01:10:16.603Z,96541.59
2022-09-28T01:12:43.298Z,96536.91
2022-09-28T01:15:10.923Z,96532.78
2022-09-28T01:17:53.049Z,96528.03
2022-09-28T01:20:47.261Z,96536.97
2022-09-28T01:23:29.367Z,96545.09
2022-09-28T01:26:23.612Z,96539.78
2022-09-28T01:28:59.486Z,96540.91
2022-09-28T01:31:32.383Z,96541.84
2022-09-28T01:34:11.903Z,96548.00
2022-09-28T01:36:50.726Z,96546.22
2022-09-28T01:39:26.113Z,96545.78
2022-09-28T01:41:56.887Z,96531.94
2022-09-28T01:44:29.260Z,96533.63
2022-09-28T01:47:03.490Z,96527.66
2022-09-28T01:49:38.703Z,96535.00
2022-09-28T01:52:29.262Z,96525.00
2022-09-28T01:55:02.310Z,96528.56
2022-09-28T01:57:39.918Z,96517.50
2022-09-28T02:00:13.411Z,96510.47
2022-09-28T02:03:08.425Z,96516.69
2022-09-28T02:05:55.492Z,96508.06
2022-09-28T02:08:26.790Z,96507.00
2022-09-28T02:11:20.887Z,96509.22
2022-09-28T02:13:56.759Z,96513.38
2022-09-28T02:16:31.341Z,96511.31
2022-09-28T02:18:58.394Z,96508.03
2022-09-28T02:21:43.856Z,96512.47
2022-09-28T02:24:21.278Z,96509.88
2022-09-28T02:26:51.797Z,96508.16
2022-09-28T02:29:18.591Z,96516.38
2022-09-28T02:31:45.503Z,96504.22
2022-09-28T02:34:12.410Z,96502.72
2022-09-28T02:36:39.125Z,96515.59
2022-09-28T02:39:06.619Z,96497.22
2022-09-28T02:41:55.245Z,96495.13
2022-09-28T02:44:51.824Z,96504.09
2022-09-28T02:47:35.903Z,96494.47
2022-09-28T02:50:10.633Z,96489.94
2022-09-28T02:52:56.307Z,96484.16
2022-09-28T02:55:41.545Z,96491.56
2022-09-28T02:58:26.921Z,96480.75
2022-09-28T03:01:05.546Z,96491.19
2022-09-28T03:03:57.414Z,96485.88
2022-09-28T03:06:37.474Z,96488.44
2022-09-28T03:09:04.068Z,96493.63
2022-09-28T03:11:40.730Z,96496.22
2022-09-28T03:14:07.572Z,96495.63
2022-09-28T03:16:44.618Z,96500.25
2022-09-28T03:19:16.751Z,96510.69
2022-09-28T03:21:43.400Z,96500.25
2022-09-28T03:24:11.046Z,96497.91
2022-09-28T03:26:40.804Z,96497.34
2022-09-28T03:29:07.668Z,96505.19
2022-09-28T03:31:35.177Z,96508.78
2022-09-28T03:34:02.242Z,96511.91
2022-09-28T03:36:28.964Z,96505.56
2022-09-28T03:38:56.189Z,96509.53
2022-09-28T03:41:24.162Z,96501.69
2022-09-28T03:43:50.800Z,96508.53
2022-09-28T03:46:17.712Z,96512.09
2022-09-28T03:48:48.348Z,96509.06
2022-09-28T03:51:15.075Z,96505.47
2022-09-28T03:53:41.835Z,96510.31
2022-09-28T03:56:13.060Z,96504.06
2022-09-28T03:58:40.455Z,96500.25
2022-09-28T04:01:16.464Z,96505.50
2022-09-28T04:03:45.794Z,96514.69
2022-09-28T04:06:13.270Z,96508.59
2022-09-28T04:08:40.234Z,96503.50
2022-09-28T04:11:06.853Z,96513.63
2022-09-28T04:13:33.807Z,96508.41
2022-09-28T04:16:01.671Z,96510.78
2022-09-28T04:18:32.582Z,96512.69
2022-09-28T04:21:22.506Z,96516.94
2022-09-28T04:24:02.127Z,96519.00
2022-09-28T04:26:28.907Z,96516.00
2022-09-28T04:29:15.327Z,96510.59
2022-09-28T04:31:46.243Z,96513.03
2022-09-28T04:34:17.346Z,96518.47
2022-09-28T04:36:45.154Z,96517.22
2022-09-28T04:39:14.024Z,96518.19
2022-09-28T04:41:43.145Z,96519.97
2022-09-28T04:44:09.990Z,96521.66
2022-09-28T04:46:36.793Z,96519.78
2022-09-28T04:49:38.911Z,96524.97
2022-09-28T04:52:17.187Z,96517.88
2022-09-28T04:54:45.112Z,96522.59
2022-09-28T04:57:11.825Z,96526.00
2022-09-28T04:59:38.916Z,96527.31
2022-09-28T05:02:05.754Z,96523.81
2022-09-28T05:04:51.028Z,96518.25
2022-09-28T05:07:36.437Z,96529.03
2022-09-28T05:10:05.856Z,96530.16
2022-09-28T05:12:33.050Z,96538.16
2022-09-28T05:15:00.575Z,96526.91
2022-09-28T05:17:27.342Z,96539.97
2022-09-28T05:20:13.130Z,96535.91
2022-09-28T05:22:39.870Z,96536.50
2022-09-28T05:25:08.438Z,96539.81
2022-09-28T05:27:46.229Z,96542.72
2022-09-28T05:30:35.396Z,96542.28
2022-09-28T05:33:24.876Z,96542.09
2022-09-28T05:36:03.108Z,96549.25
2022-09-28T05:38:30.337Z,96547.75
2022-09-28T05:40:57.191Z,96554.88
2022-09-28T05:43:24.063Z,96545.81
2022-09-28T05:45:55.245Z,96563.31
2022-09-28T05:48:23.005Z,96558.28
2022-09-28T05:50:53.270Z,96555.72
2022-09-28T05:53:21.303Z,96569.25
2022-09-28T05:55:48.358Z,96567.69
2022-09-28T05:58:15.364Z,96566.59
2022-09-28T06:00:43.222Z,96575.69
2022-09-28T06:03:14.467Z,96564.28
2022-09-28T06:05:41.255Z,96573.28
2022-09-28T06:08:10.309Z,96570.88
2022-09-28T06:10:38.137Z,96571.78
2022-09-28T06:13:06.399Z,96571.38
2022-09-28T06:15:35.125Z,96566.69
2022-09-28T06:18:07.726Z,96574.09
2022-09-28T06:20:43.005Z,96571.72
2022-09-28T06:23:32.796Z,96578.31
2022-09-28T06:26:00.148Z,96584.03
2022-09-28T06:28:27.086Z,96589.00
2022-09-28T06:30:54.089Z,96583.63
2022-09-28T06:33:21.873Z,96589.88
2022-09-28T06:35:48.557Z,96587.34
2022-09-28T06:38:15.247Z,96587.19
2022-09-28T06:40:41.943Z,96588.00
2022-09-28T06:43:15.059Z,96575.91
2022-09-28T06:46:01.439Z,96574.56
2022-09-28T06:48:40.537Z,96574.53
2022-09-28T06:51:09.583Z,96582.63
2022-09-28T06:53:44.345Z,96574.00
2022-09-28T06:56:32.991Z,96569.56
2022-09-28T06:59:00.123Z,96577.31
2022-09-28T07:01:28.387Z,96571.97
2022-09-28T07:04:21.389Z,96567.44
2022-09-28T07:07:08.943Z,96572.41
2022-09-28T07:09:55.512Z,96570.09
2022-09-28T07:12:40.666Z,96574.19
2022-09-28T07:15:43.347Z,96580.03
2022-09-28T07:18:13.104Z,96582.50
2022-09-28T07:20:52.145Z,96578.00
2022-09-28T07:23:21.054Z,96593.78
2022-09-28T07:26:25.941Z,96596.41
2022-09-28T07:29:05.687Z,96596.56
2022-09-28T07:31:46.647Z,96610.44
2022-09-28T07:34:25.388Z,96613.84
2022-09-28T07:37:11.579Z,96639.63
2022-09-28T07:39:56.964Z,96647.00
2022-09-28T07:42:25.104Z,96651.09
2022-09-28T07:44:51.840Z,96651.16
2022-09-28T07:47:30.773Z,96657.66
2022-09-28T07:50:15.549Z,96673.69
2022-09-28T07:52:57.037Z,96676.22
2022-09-28T07:55:29.019Z,96694.22
2022-09-28T07:58:10.874Z,96690.31
2022-09-28T08:00:56.548Z,96692.78
2022-09-28T08:03:24.217Z,96696.44
2022-09-28T08:05:52.001Z,96686.94
2022-09-28T08:08:20.264Z,96693.22
2022-09-28T08:10:47.778Z,96700.84
2022-09-28T08:13:33.130Z,96695.72
2022-09-28T08:16:13.481Z,96699.25
2022-09-28T08:18:51.125Z,96704.03
2022-09-28T08:21:36.430Z,96698.97
2022-09-28T08:24:03.103Z,96680.59
2022-09-28T08:26:29.799Z,96669.56
2022-09-28T08:28:57.383Z,96643.28
2022-09-28T08:32:01.264Z,96651.81
2022-09-28T08:34:51.243Z,96650.91
2022-09-28T08:37:38.128Z,96650.00
2022-09-28T08:40:50.330Z,96651.13
2022-09-28T08:43:35.317Z,96658.50
2022-09-28T08:46:45.348Z,96640.56
2022-09-28T08:49:49.925Z,96642.94
2022-09-28T08:52:36.046Z,96640.03
2022-09-28T08:55:37.196Z,96642.66
2022-09-28T08:58:13.990Z,96664.09
2022-09-28T09:00:51.404Z,96652.25
2022-09-28T09:03:33.985Z,96664.03
2022-09-28T09:06:51.152Z,96667.47
2022-09-28T09:10:05.497Z,96674.41
2022-09-28T09:13:03.600Z,96679.09
2022-09-28T09:15:43.288Z,96681.25
2022-09-28T09:18:44.867Z,96677.88
2022-09-28T09:21:37.041Z,96668.31
2022-09-28T09:24:17.964Z,96661.53
2022-09-28T09:26:45.645Z,96654.75
2022-09-28T09:29:21.518Z,96647.38
2022-09-28T09:32:14.370Z,96647.38
2022-09-28T09:34:56.401Z,96654.69
2022-09-28T09:38:12.727Z,96656.91
2022-09-28T09:41:10.866Z,96661.50
2022-09-28T09:44:50.232Z,96660.75
2022-09-28T09:47:44.978Z,96654.22
2022-09-28T09:50:31.730Z,96640.41
2022-09-28T09:53:05.697Z,96661.56
2022-09-28T09:55:41.806Z,96662.78
2022-09-28T09:58:48.779Z,96661.03
2022-09-28T10:01:38.836Z,96669.88
2022-09-28T10:04:25.891Z,96670.28
2022-09-28T10:07:02.971Z,96680.19
2022-09-28T10:09:37.836Z,96691.91
2022-09-28T10:12:21.948Z,96690.66
2022-09-28T10:14:49.484Z,96677.03
2022-09-28T10:17:19.711Z,96680.31
2022-09-28T10:20:14.813Z,96672.84
2022-09-28T10:22:43.730Z,96684.78
2022-09-28T10:25:17.478Z,96695.06
2022-09-28T10:27:52.503Z,96694.53
2022-09-28T10:30:25.338Z,96699.53
2022-09-28T10:32:59.276Z,96692.63
2022-09-28T10:35:43.214Z,96695.06
2022-09-28T10:38:19.150Z,96690.81
2022-09-28T10:40:58.542Z,96690.44
2022-09-28T10:44:06.170Z,96685.94
2022-09-28T10:46:39.003Z,96705.56
2022-09-28T10:49:17.800Z,96703.44
2022-09-28T10:51:59.727Z,96692.66
2022-09-28T10:54:32.033Z,96689.50
2022-09-28T10:57:00.351Z,96682.00
2022-09-28T10:59:38.878Z,96675.25
2022-09-28T11:02:36.348Z,96675.41
2022-09-28T11:05:24.644Z,96672.63
2022-09-28T11:07:56.636Z,96663.00
2022-09-28T11:10:32.602Z,96664.66
2022-09-28T11:13:09.481Z,96667.69
2022-09-28T11:15:43.334Z,96665.13
2022-09-28T11:18:32.446Z,96666.91
2022-09-28T11:21:14.691Z,96675.69
2022-09-28T11:24:01.693Z,96664.00
2022-09-28T11:26:48.015Z,96665.97
2022-09-28T11:29:33.634Z,96667.88
2022-09-28T11:32:19.626Z,96683.13
2022-09-28T11:35:19.726Z,96684.88
2022-09-28T11:37:55.804Z,96686.22
2022-09-28T11:41:14.801Z,96686.66
2022-09-28T11:43:57.809Z,96688.47
2022-09-28T11:46:34.457Z,96697.72
2022-09-28T11:49:34.051Z,96694.50
2022-09-28T11:52:06.986Z,96701.66
2022-09-28T11:54:48.381Z,96700.72
2022-09-28T11:57:22.170Z,96707.09
2022-09-28T11:59:54.968Z,96707.25
2022-09-28T12:02:36.849Z,96710.47
2022-09-28T12:05:21.260Z,96716.31
2022-09-28T12:07:56.282Z,96721.47
2022-09-28T12:11:09.656Z,96727.31
2022-09-28T12:13:59.903Z,96735.78
2022-09-28T12:19:37.598Z,96744.56
2022-09-28T12:22:15.947Z,96742.75
2022-09-28T12:24:47.568Z,96734.81
2022-09-28T12:27:38.591Z,96732.34
2022-09-28T12:30:14.131Z,96728.75
2022-09-28T12:32:52.340Z,96732.03
2022-09-28T12:35:40.359Z,96734.50
2022-09-28T12:38:16.084Z,96731.53
2022-09-28T12:41:13.626Z,96729.25
2022-09-28T12:43:40.610Z,96726.34
2022-09-28T12:46:16.571Z,96729.38
2022-09-28T12:52:37.077Z,96722.69
2022-09-28T12:55:12.931Z,96727.66
2022-09-28T12:57:55.414Z,96717.56
2022-09-28T13:00:25.184Z,96712.97
2022-09-28T13:03:41.176Z,96712.41
2022-09-28T13:06:32.672Z,96708.00
2022-09-28T13:09:13.002Z,96714.75
2022-09-28T13:12:22.385Z,96713.03
2022-09-28T13:14:55.014Z,96700.50
2022-09-28T13:18:00.313Z,96702.81
2022-09-28T13:20:45.745Z,96704.50
2022-09-28T13:23:23.029Z,96701.34
2022-09-28T13:25:55.716Z,96697.56
2022-09-28T13:28:27.123Z,96688.97
2022-09-28T13:33:44.604Z,96684.44
2022-09-28T13:36:30.454Z,96688.28
2022-09-28T13:38:59.437Z,96692.34
2022-09-28T13:41:31.616Z,96689.03
2022-09-28T13:44:07.124Z,96689.09
2022-09-28T13:46:46.464Z,96684.47
2022-09-28T13:49:13.047Z,96687.16
2022-09-28T13:52:21.292Z,96685.38
2022-09-28T13:55:02.736Z,96681.78
2022-09-28T13:57:48.634Z,96678.59
2022-09-28T14:00:30.598Z,96677.06
2022-09-28T14:03:06.213Z,96681.81
2022-09-28T14:05:34.218Z,96685.09
2022-09-28T14:08:09.723Z,96687.06
2022-09-28T14:10:51.747Z,96684.97
2022-09-28T14:13:43.577Z,96683.59
2022-09-28T14:16:24.710Z,96683.66
2022-09-28T14:18:57.047Z,96682.00
2022-09-28T14:21:45.019Z,96688.09
2022-09-28T14:24:34.710Z,96683.19
2022-09-28T14:27:40.132Z,96691.91
2022-09-28T14:30:12.599Z,96696.41
2022-09-28T14:32:43.092Z,96691.34
2022-09-28T14:35:29.608Z,96692.03
2022-09-28T14:38:20.953Z,96693.88
2022-09-28T14:41:13.636Z,96696.56
2022-09-28T14:43:46.308Z,96698.38
2022-09-28T14:46:19.010Z,96695.59
2022-09-28T14:49:25.269Z,96697.66
2022-09-28T14:51:57.954Z,96705.16
2022-09-28T14:54:45.236Z,96700.91
2022-09-28T14:57:18.612Z,96711.00
2022-09-28T14:59:46.590Z,96703.09
2022-09-28T15:02:17.276Z,96710.28
2022-09-28T15:04:48.831Z,96705.78
2022-09-28T15:07:23.148Z,96707.34
2022-09-28T15:09:52.372Z,96704.94
2022-09-28T15:12:25.760Z,96718.03
2022-09-28T15:14:56.140Z,96708.09
2022-09-28T15:17:27.114Z,96709.19
2022-09-28T15:20:26.062Z,96699.34
2022-09-28T15:22:58.295Z,96696.16
2022-09-28T15:25:27.576Z,96706.16
2022-09-28T15:28:06.479Z,96702.72
2022-09-28T15:30:35.328Z,96695.44
2022-09-28T15:33:22.688Z,96696.75
2022-09-28T15:36:03.339Z,96687.84
2022-09-28T15:38:32.328Z,96687.75
2022-09-28T15:41:02.752Z,96688.00
2022-09-28T15:43:34.657Z,96687.16
2022-09-28T15:46:20.910Z,96689.84
2022-09-28T15:48:55.211Z,96696.28
2022-09-28T15:51:23.712Z,96690.25
2022-09-28T15:53:58.374Z,96704.69
2022-09-28T15:56:26.222Z,96707.84
2022-09-28T15:59:32.551Z,96707.72
2022-09-28T16:02:18.722Z,96715.53
2022-09-28T16:04:47.913Z,96716.38
2022-09-28T16:07:29.903Z,96718.91
2022-09-28T16:10:12.834Z,96721.16
2022-09-28T16:12:48.542Z,96721.75
2022-09-28T16:15:35.350Z,96725.16
2022-09-28T16:18:12.608Z,96716.34
2022-09-28T16:20:40.992Z,96720.50
2022-09-28T16:23:16.583Z,96725.97
2022-09-28T16:26:02.887Z,96727.25
2022-09-28T16:28:38.507Z,96729.59
2022-09-28T16:31:22.061Z,96727.97
2022-09-28T16:33:54.098Z,96735.50
2022-09-28T16:36:24.654Z,96734.91
2022-09-28T16:38:51.284Z,96725.38
2022-09-28T16:41:23.325Z,96736.91
2022-09-28T16:43:55.012Z,96735.03
2022-09-28T16:46:39.488Z,96742.09
2022-09-28T16:49:06.941Z,96747.34
2022-09-28T16:51:33.661Z,96747.66
2022-09-28T16:54:32.541Z,96755.66
2022-09-28T16:57:00.400Z,96751.41
2022-09-28T16:59:28.240Z,96760.03
2022-09-28T17:01:56.471Z,96761.44
2022-09-28T17:04:25.067Z,96763.47
2022-09-28T17:06:54.303Z,96770.19
2022-09-28T17:09:22.359Z,96772.00
2022-09-28T17:11:56.049Z,96766.09
2022-09-28T17:14:23.823Z,96772.81
2022-09-28T17:17:08.065Z,96769.41
2022-09-28T17:19:37.179Z,96775.06
2022-09-28T17:22:03.815Z,96778.53
2022-09-28T17:24:30.457Z,96776.31
2022-09-28T17:26:57.338Z,96779.38
2022-09-28T17:29:23.986Z,96783.50
2022-09-28T17:31:50.725Z,96776.38
2022-09-28T17:34:17.679Z,96778.47
2022-09-28T17:36:44.840Z,96779.53
2022-09-28T17:39:17.392Z,96777.91
2022-09-28T17:41:44.739Z,96786.53
2022-09-28T17:44:16.064Z,96783.78
2022-09-28T17:46:49.337Z,96786.25
2022-09-28T17:49:16.591Z,96785.00
2022-09-28T17:51:43.279Z,96783.06
2022-09-28T17:54:10.373Z,96783.72
2022-09-28T17:56:37.046Z,96787.25
2022-09-28T17:59:06.565Z,96781.28
2022-09-28T18:01:34.929Z,96782.34
2022-09-28T18:04:04.860Z,96788.75
2022-09-28T18:06:33.724Z,96786.81
2022-09-28T18:09:02.859Z,96795.00
2022-09-28T18:11:31.197Z,96793.59
2022-09-28T18:13:57.995Z,96799.75
2022-09-28T18:16:27.802Z,96797.97
2022-09-28T18:18:54.687Z,96795.81
2022-09-28T18:21:21.546Z,96805.31
2022-09-28T18:23:48.223Z,96813.31
2022-09-28T18:26:16.677Z,96816.63
2022-09-28T18:28:43.330Z,96820.69
2022-09-28T18:31:12.401Z,96810.91
2022-09-28T18:33:39.546Z,96824.22
2022-09-28T18:36:07.189Z,96820.25
2022-09-28T18:38:38.077Z,96821.84
2022-09-28T18:41:16.824Z,96820.44
2022-09-28T18:43:49.120Z,96821.41
2022-09-28T18:46:18.090Z,96815.53
2022-09-28T18:48:44.843Z,96815.81
2022-09-28T18:51:12.351Z,96822.34
2022-09-28T18:53:40.324Z,96825.38
2022-09-28T18:56:12.923Z,96828.25
2022-09-28T18:58:40.865Z,96825.50
2022-09-28T19:01:31.898Z,96824.47
2022-09-28T19:04:00.574Z,96821.91
2022-09-28T19:06:27.728Z,96827.59
2022-09-28T19:08:58.000Z,96836.06
2022-09-28T19:11:25.308Z,96833.59
2022-09-28T19:13:53.656Z,96838.34
2022-09-28T19:16:25.968Z,96839.50
2022-09-28T19:18:53.497Z,96844.47
2022-09-28T19:21:21.001Z,96854.13
2022-09-28T19:23:49.772Z,96844.94
2022-09-28T19:26:22.524Z,96847.81
2022-09-28T19:28:49.278Z,96855.78
2022-09-28T19:31:16.648Z,96854.34
2022-09-28T19:33:45.264Z,96850.56
2022-09-28T19:36:18.343Z,96853.13
2022-09-28T19:38:45.922Z,96854.81
2022-09-28T19:41:39.018Z,96853.78
2022-09-28T19:44:26.006Z,96858.44
2022-09-28T19:46:57.041Z,96859.66
2022-09-28T19:49:25.910Z,96864.13
2022-09-28T19:52:14.443Z,96860.25
2022-09-28T19:54:52.042Z,96864.09
2022-09-28T19:57:19.516Z,96863.91
2022-09-28T19:59:50.685Z,96862.69
2022-09-28T20:02:19.692Z,96863.38
2022-09-28T20:04:46.576Z,96879.13
2022-09-28T20:07:13.857Z,96874.72
2022-09-28T20:09:41.054Z,96877.84
2022-09-28T20:12:08.562Z,96874.59
2022-09-28T20:14:38.278Z,96873.91
2022-09-28T20:17:07.292Z,96877.09
2022-09-28T20:19:34.835Z,96877.34
2022-09-28T20:22:02.963Z,96877.06
2022-09-28T20:24:31.239Z,96873.66
2022-09-28T20:26:58.475Z,96878.00
2022-09-28T20:29:25.210Z,96872.00
2022-09-28T20:31:52.224Z,96867.66
2022-09-28T20:34:18.957Z,96872.69
2022-09-28T20:36:45.562Z,96871.44
2022-09-28T20:39:12.482Z,96872.13
2022-09-28T20:41:39.306Z,96867.84
2022-09-28T20:44:06.811Z,96868.59
2022-09-28T20:46:35.443Z,96863.88
2022-09-28T20:49:02.754Z,96872.19
2022-09-28T20:51:29.430Z,96873.69
2022-09-28T20:53:57.937Z,96883.06
2022-09-28T20:56:28.596Z,96883.84
2022-09-28T20:58:55.482Z,96885.28
2022-09-28T21:01:24.841Z,96881.44
2022-09-28T21:03:56.499Z,96881.50
2022-09-28T21:06:25.316Z,96873.53
2022-09-28T21:08:52.118Z,96887.84
2022-09-28T21:11:21.165Z,96878.53
2022-09-28T21:13:48.395Z,96880.09
2022-09-28T21:16:17.937Z,96879.59
2022-09-28T21:18:45.046Z,96883.31
2022-09-28T21:21:13.729Z,96879.09
2022-09-28T21:23:41.046Z,96877.13
2022-09-28T21:26:13.960Z,96878.06
2022-09-28T21:28:40.665Z,96878.75
2022-09-28T21:31:11.168Z,96879.28
2022-09-28T21:33:38.165Z,96879.63
2022-09-28T21:36:06.900Z,96876.47
2022-09-28T21:38:34.314Z,96880.41
2022-09-28T21:41:01.155Z,96885.72
2022-09-28T21:43:29.985Z,96878.59
2022-09-28T21:45:58.092Z,96887.25
2022-09-28T21:48:27.335Z,96882.63
2022-09-28T21:51:05.836Z,96882.56
2022-09-28T21:53:34.391Z,96882.13
2022-09-28T21:56:02.661Z,96879.81
2022-09-28T21:58:31.865Z,96881.78
2022-09-28T22:01:06.781Z,96883.16
2022-09-28T22:03:35.376Z,96887.06
2022-09-28T22:06:03.432Z,96882.00
2022-09-28T22:08:30.240Z,96886.03
2022-09-28T22:11:05.566Z,96892.31
2022-09-28T22:13:35.138Z,96894.22
2022-09-28T22:16:02.183Z,96889.94
2022-09-28T22:18:30.826Z,96891.06
2022-09-28T22:20:59.489Z,96878.97
2022-09-28T22:23:27.621Z,96885.13
2022-09-28T22:26:14.514Z,96886.22
2022-09-28T22:28:46.247Z,96890.31
2022-09-28T22:31:13.806Z,96891.66
2022-09-28T22:33:40.471Z,96893.78
2022-09-28T22:36:07.871Z,96895.03
2022-09-28T22:38:35.214Z,96895.25
2022-09-28T22:41:03.706Z,96892.09
2022-09-28T22:43:30.906Z,96893.19
2022-09-28T22:46:03.229Z,96895.94
2022-09-28T22:48:30.142Z,96892.66
2022-09-28T22:50:57.036Z,96891.88
2022-09-28T22:53:23.853Z,96892.97
2022-09-28T22:55:50.602Z,96888.00
2022-09-28T22:58:17.666Z,96893.53
2022-09-28T23:00:44.508Z,96890.88
2022-09-28T23:03:11.377Z,96894.44
2022-09-28T23:05:38.164Z,96884.88
2022-09-28T23:08:04.936Z,96885.22
2022-09-28T23:10:31.740Z,96887.59
2022-09-28T23:12:58.781Z,96885.41
2022-09-28T23:15:26.145Z,96885.94
2022-09-28T23:17:53.536Z,96878.75
2022-09-28T23:20:21.496Z,96886.63
2022-09-28T23:22:48.754Z,96881.19
2022-09-28T23:25:17.052Z,96881.19
2022-09-28T23:27:48.009Z,96890.06
2022-09-28T23:30:16.257Z,96886.22
2022-09-28T23:32:43.388Z,96895.97
2022-09-28T23:35:10.767Z,96890.03
2022-09-28T23:37:38.186Z,96889.03
2022-09-28T23:40:06.074Z,96890.59
2022-09-28T23:42:34.897Z,96890.69
2022-09-28T23:45:01.820Z,96891.75
2022-09-28T23:47:29.766Z,96884.09
2022-09-28T23:49:56.426Z,96881.78
2022-09-28T23:52:23.027Z,96881.88
2022-09-28T23:54:49.658Z,96886.50
2022-09-28T23:57:16.262Z,96885.16
2022-09-28T23:59:42.887Z,96890.53
